createdAt,value
2017-12-14T00:00:55.767Z,91.42
2017-12-14T00:01:54.181Z,91.14
2017-12-14T00:04:48.178Z,89.72
2017-12-14T00:05:40.084Z,89.62
2017-12-14T00:08:27.964Z,89.81
2017-12-14T00:09:27.923Z,89.53
2017-12-14T00:12:11.324Z,89.90
2017-12-14T00:13:11.295Z,89.81
2017-12-14T00:15:54.679Z,89.90
2017-12-14T00:16:54.637Z,90.09
2017-12-14T00:19:38.108Z,89.81
2017-12-14T00:20:37.971Z,89.81
2017-12-14T00:23:22.361Z,90.19
2017-12-14T00:24:22.339Z,89.95
2017-12-14T00:27:05.707Z,90.14
2017-12-14T00:28:05.670Z,89.86
2017-12-14T00:30:51.023Z,89.67
2017-12-14T00:31:50.988Z,89.76
2017-12-14T00:32:50.991Z,89.29
2017-12-14T00:33:50.973Z,89.67
2017-12-14T00:34:51.599Z,90.05
2017-12-14T00:35:50.951Z,89.76
2017-12-14T00:36:50.934Z,89.67
2017-12-14T00:37:50.928Z,89.76
2017-12-14T00:38:50.920Z,89.20
2017-12-14T00:39:50.913Z,89.67
2017-12-14T00:40:50.902Z,89.76
2017-12-14T00:41:50.895Z,90.14
2017-12-14T00:42:51.599Z,89.95
2017-12-14T00:43:50.873Z,90.24
2017-12-14T00:44:50.862Z,90.71
2017-12-14T00:45:50.849Z,91.09
2017-12-14T00:46:50.852Z,91.09
2017-12-14T00:47:50.842Z,91.75
2017-12-14T00:48:50.822Z,92.14
2017-12-14T00:49:50.815Z,92.42
2017-12-14T00:50:50.803Z,92.04
2017-12-14T00:51:50.797Z,92.33
2017-12-14T00:52:50.786Z,91.99
2017-12-14T00:53:50.773Z,92.23
2017-12-14T00:54:50.775Z,93.08
2017-12-14T00:55:50.749Z,93.75
2017-12-14T00:56:50.741Z,93.80
2017-12-14T00:57:50.729Z,93.41
2017-12-14T00:58:51.604Z,93.51
2017-12-14T00:59:50.714Z,93.89
2017-12-14T01:00:50.702Z,93.61
2017-12-14T01:01:50.686Z,94.27
2017-12-14T01:02:50.682Z,94.74
2017-12-14T01:03:50.675Z,94.37
2017-12-14T01:04:50.664Z,94.46
2017-12-14T01:05:50.657Z,94.74
2017-12-14T01:06:50.647Z,94.27
2017-12-14T01:07:50.630Z,94.74
2017-12-14T01:08:53.610Z,95.22
2017-12-14T01:09:50.614Z,95.22
2017-12-14T01:10:51.127Z,95.31
2017-12-14T01:11:51.108Z,94.74
2017-12-14T01:12:50.579Z,95.31
2017-12-14T01:13:50.567Z,95.03
2017-12-14T01:14:50.559Z,95.22
2017-12-14T01:15:50.553Z,94.93
2017-12-14T01:16:50.540Z,95.03
2017-12-14T01:17:50.530Z,94.65
2017-12-14T01:18:50.522Z,94.18
2017-12-14T01:19:50.509Z,94.27
2017-12-14T01:20:50.498Z,94.56
2017-12-14T01:21:50.491Z,94.18
2017-12-14T01:22:51.142Z,94.46
2017-12-14T01:23:50.472Z,94.46
2017-12-14T01:24:51.115Z,94.56
2017-12-14T01:25:50.450Z,94.56
2017-12-14T01:26:50.434Z,94.56
2017-12-14T01:27:50.435Z,94.56
2017-12-14T01:28:50.422Z,94.56
2017-12-14T01:29:50.406Z,94.65
2017-12-14T01:30:50.396Z,94.46
2017-12-14T01:31:50.388Z,94.46
2017-12-14T01:32:50.379Z,94.56
2017-12-14T01:33:50.366Z,94.27
2017-12-14T01:34:50.379Z,94.37
2017-12-14T01:35:51.117Z,94.46
2017-12-14T01:36:50.342Z,94.56
2017-12-14T01:37:50.327Z,94.46
2017-12-14T01:38:50.316Z,94.56
2017-12-14T01:39:50.309Z,94.18
2017-12-14T01:40:50.299Z,94.37
2017-12-14T01:41:53.121Z,94.74
2017-12-14T01:42:50.277Z,94.56
2017-12-14T01:43:50.269Z,94.46
2017-12-14T01:44:50.257Z,94.46
2017-12-14T01:45:50.244Z,94.37
2017-12-14T01:46:50.254Z,94.56
2017-12-14T01:47:51.124Z,94.65
2017-12-14T01:48:50.226Z,94.56
2017-12-14T01:49:50.208Z,94.18
2017-12-14T01:50:50.193Z,94.56
2017-12-14T01:51:50.186Z,94.56
2017-12-14T01:52:51.121Z,94.56
2017-12-14T01:53:50.163Z,94.74
2017-12-14T01:54:50.154Z,94.18
2017-12-14T01:55:50.146Z,94.56
2017-12-14T01:56:50.136Z,94.46
2017-12-14T01:57:50.128Z,94.56
2017-12-14T01:58:50.134Z,94.37
2017-12-14T01:59:50.111Z,94.18
2017-12-14T02:00:50.101Z,93.80
2017-12-14T02:01:50.087Z,94.46
2017-12-14T02:02:50.080Z,94.37
2017-12-14T02:03:50.071Z,93.89
2017-12-14T02:04:50.636Z,93.89
2017-12-14T02:05:50.047Z,93.80
2017-12-14T02:06:50.033Z,93.61
2017-12-14T02:07:50.020Z,93.99
2017-12-14T02:08:50.015Z,94.18
2017-12-14T02:09:50.004Z,93.99
2017-12-14T02:10:50.010Z,94.56
2017-12-14T02:11:49.985Z,93.89
2017-12-14T02:12:49.973Z,93.80
2017-12-14T02:13:49.964Z,93.13
2017-12-14T02:14:49.958Z,93.99
2017-12-14T02:15:49.948Z,93.80
2017-12-14T02:16:49.948Z,93.41
2017-12-14T02:17:49.920Z,93.23
2017-12-14T02:18:49.920Z,93.41
2017-12-14T02:19:49.916Z,93.41
2017-12-14T02:20:49.898Z,93.41
2017-12-14T02:21:49.888Z,93.23
2017-12-14T02:22:49.879Z,92.94
2017-12-14T02:23:49.867Z,92.76
2017-12-14T02:24:49.857Z,92.38
2017-12-14T02:25:49.845Z,91.80
2017-12-14T02:26:49.833Z,91.61
2017-12-14T02:27:49.825Z,91.80
2017-12-14T02:28:49.816Z,91.94
2017-12-14T02:29:49.799Z,91.09
2017-12-14T02:30:49.810Z,91.09
2017-12-14T02:31:49.793Z,91.09
2017-12-14T02:32:50.636Z,90.62
2017-12-14T02:33:49.768Z,90.62
2017-12-14T02:34:49.762Z,89.76
2017-12-14T02:35:49.750Z,89.76
2017-12-14T02:36:49.737Z,89.67
2017-12-14T02:37:49.729Z,90.05
2017-12-14T02:38:50.647Z,90.52
2017-12-14T02:39:49.711Z,90.24
2017-12-14T02:40:49.701Z,91.19
2017-12-14T02:41:49.684Z,91.09
2017-12-14T02:42:49.677Z,91.28
2017-12-14T02:43:49.670Z,91.56
2017-12-14T02:44:49.657Z,91.47
2017-12-14T02:45:49.652Z,91.75
2017-12-14T02:46:49.649Z,91.85
2017-12-14T02:47:49.632Z,92.33
2017-12-14T02:48:50.141Z,92.52
2017-12-14T02:49:49.617Z,92.61
2017-12-14T02:50:49.601Z,93.18
2017-12-14T02:51:49.590Z,92.90
2017-12-14T02:52:49.584Z,93.56
2017-12-14T02:53:49.570Z,93.65
2017-12-14T02:54:49.560Z,93.65
2017-12-14T02:55:49.554Z,94.03
2017-12-14T02:56:49.547Z,93.94
2017-12-14T02:57:49.524Z,93.46
2017-12-14T02:58:49.524Z,93.56
2017-12-14T02:59:49.514Z,93.41
2017-12-14T03:00:49.504Z,93.37
2017-12-14T03:01:49.494Z,93.18
2017-12-14T03:02:49.480Z,93.84
2017-12-14T03:03:49.476Z,93.80
2017-12-14T03:04:49.462Z,93.89
2017-12-14T03:05:49.450Z,94.18
2017-12-14T03:06:49.440Z,94.08
2017-12-14T03:07:49.430Z,94.27
2017-12-14T03:08:49.423Z,94.74
2017-12-14T03:09:49.410Z,94.56
2017-12-14T03:10:49.408Z,94.56
2017-12-14T03:11:49.398Z,94.56
2017-12-14T03:12:49.383Z,94.56
2017-12-14T03:13:49.374Z,93.99
2017-12-14T03:14:49.366Z,94.37
2017-12-14T03:15:49.360Z,94.37
2017-12-14T03:16:49.356Z,94.46
2017-12-14T03:17:49.335Z,94.18
2017-12-14T03:18:49.325Z,94.46
2017-12-14T03:19:49.313Z,94.56
2017-12-14T03:20:49.303Z,93.99
2017-12-14T03:21:49.297Z,93.89
2017-12-14T03:22:49.283Z,93.75
2017-12-14T03:23:49.275Z,93.41
2017-12-14T03:24:49.267Z,93.27
2017-12-14T03:25:49.253Z,94.08
2017-12-14T03:26:49.247Z,93.46
2017-12-14T03:27:49.244Z,92.57
2017-12-14T03:28:49.247Z,92.71
2017-12-14T03:29:49.218Z,92.23
2017-12-14T03:30:49.207Z,91.66
2017-12-14T03:31:49.201Z,91.47
2017-12-14T03:32:49.192Z,91.56
2017-12-14T03:33:49.184Z,91.61
2017-12-14T03:34:49.165Z,91.71
2017-12-14T03:35:49.158Z,91.56
2017-12-14T03:36:49.149Z,91.61
2017-12-14T03:37:49.133Z,91.56
2017-12-14T03:38:49.128Z,92.04
2017-12-14T03:39:49.116Z,91.38
2017-12-14T03:40:49.106Z,91.28
2017-12-14T03:41:49.096Z,91.38
2017-12-14T03:42:49.093Z,91.19
2017-12-14T03:43:49.084Z,91.19
2017-12-14T03:44:49.069Z,91.24
2017-12-14T03:45:49.058Z,91.24
2017-12-14T03:46:49.052Z,91.33
2017-12-14T03:47:49.041Z,91.33
2017-12-14T03:48:49.031Z,90.86
2017-12-14T03:49:49.020Z,91.05
2017-12-14T03:50:49.006Z,90.19
2017-12-14T03:51:48.995Z,90.29
2017-12-14T03:52:49.656Z,90.38
2017-12-14T03:53:48.978Z,90.57
2017-12-14T03:54:48.967Z,90.10
2017-12-14T03:55:48.961Z,90.00
2017-12-14T03:56:48.950Z,89.91
2017-12-14T03:57:48.934Z,90.10
2017-12-14T03:58:48.940Z,89.62
2017-12-14T03:59:48.932Z,89.72
2017-12-14T04:00:49.661Z,90.00
2017-12-14T04:01:48.893Z,89.43
2017-12-14T04:02:48.887Z,89.43
2017-12-14T04:03:49.664Z,89.81
2017-12-14T04:04:48.863Z,89.53
2017-12-14T04:05:48.850Z,88.96
2017-12-14T04:06:48.842Z,89.43
2017-12-14T04:07:48.843Z,89.43
2017-12-14T04:08:48.826Z,89.06
2017-12-14T04:09:49.672Z,88.77
2017-12-14T04:10:48.795Z,89.06
2017-12-14T04:11:48.792Z,89.25
2017-12-14T04:12:48.781Z,89.25
2017-12-14T04:13:48.770Z,89.34
2017-12-14T04:14:48.764Z,88.68
2017-12-14T04:15:51.666Z,88.77
2017-12-14T04:16:48.736Z,89.62
2017-12-14T04:17:48.728Z,88.96
2017-12-14T04:18:48.717Z,88.58
2017-12-14T04:19:48.705Z,88.48
2017-12-14T04:20:48.700Z,89.34
2017-12-14T04:21:48.702Z,88.68
2017-12-14T04:22:48.668Z,89.43
2017-12-14T04:23:48.669Z,89.91
2017-12-14T04:24:48.654Z,90.10
2017-12-14T04:25:48.647Z,90.48
2017-12-14T04:26:48.636Z,90.29
2017-12-14T04:27:49.173Z,91.24
2017-12-14T04:28:48.613Z,90.67
2017-12-14T04:29:48.606Z,91.52
2017-12-14T04:30:48.590Z,91.90
2017-12-14T04:31:48.592Z,91.80
2017-12-14T04:32:48.570Z,92.18
2017-12-14T04:33:48.564Z,92.28
2017-12-14T04:34:48.551Z,92.09
2017-12-14T04:35:48.565Z,92.09
2017-12-14T04:36:48.540Z,91.99
2017-12-14T04:37:48.521Z,91.90
2017-12-14T04:38:48.506Z,92.66
2017-12-14T04:39:48.510Z,92.38
2017-12-14T04:40:48.495Z,92.66
2017-12-14T04:41:49.189Z,92.18
2017-12-14T04:42:48.471Z,92.38
2017-12-14T04:43:48.466Z,92.09
2017-12-14T04:44:48.455Z,92.85
2017-12-14T04:45:48.447Z,93.61
2017-12-14T04:46:48.430Z,93.23
2017-12-14T04:47:48.421Z,92.47
2017-12-14T04:48:48.410Z,93.61
2017-12-14T04:49:48.399Z,93.61
2017-12-14T04:50:48.388Z,93.61
2017-12-14T04:51:48.383Z,93.32
2017-12-14T04:52:48.369Z,93.56
2017-12-14T04:53:48.354Z,93.04
2017-12-14T04:54:48.349Z,93.08
2017-12-14T04:55:48.343Z,93.80
2017-12-14T04:56:48.334Z,93.27
2017-12-14T04:57:49.182Z,93.27
2017-12-14T04:58:48.307Z,93.94
2017-12-14T04:59:48.297Z,93.89
2017-12-14T05:00:48.287Z,93.75
2017-12-14T05:01:48.277Z,93.84
2017-12-14T05:02:48.269Z,94.51
2017-12-14T05:03:48.262Z,93.80
2017-12-14T05:04:48.250Z,93.94
2017-12-14T05:05:48.248Z,94.13
2017-12-14T05:06:48.226Z,94.60
2017-12-14T05:07:48.219Z,94.56
2017-12-14T05:08:49.186Z,94.70
2017-12-14T05:09:48.200Z,94.70
2017-12-14T05:10:48.184Z,94.51
2017-12-14T05:11:48.174Z,94.60
2017-12-14T05:12:48.161Z,94.37
2017-12-14T05:13:48.156Z,94.42
2017-12-14T05:14:48.139Z,94.51
2017-12-14T05:15:48.138Z,94.51
2017-12-14T05:16:48.124Z,94.51
2017-12-14T05:17:48.103Z,94.42
2017-12-14T05:18:48.104Z,94.70
2017-12-14T05:19:48.101Z,94.46
2017-12-14T05:20:48.691Z,94.65
2017-12-14T05:21:48.071Z,94.56
2017-12-14T05:22:48.062Z,94.56
2017-12-14T05:23:48.068Z,94.27
2017-12-14T05:24:48.042Z,94.56
2017-12-14T05:25:48.688Z,94.37
2017-12-14T05:26:48.018Z,94.27
2017-12-14T05:27:48.008Z,93.89
2017-12-14T05:28:47.999Z,93.41
2017-12-14T05:29:47.983Z,93.13
2017-12-14T05:30:47.974Z,92.85
2017-12-14T05:31:47.965Z,92.85
2017-12-14T05:32:47.966Z,92.18
2017-12-14T05:33:47.949Z,91.42
2017-12-14T05:34:47.937Z,90.48
2017-12-14T05:35:47.924Z,90.76
2017-12-14T05:35:59.925Z,92.18
2017-12-14T05:37:47.905Z,93.13
2017-12-14T05:38:48.704Z,90.57
2017-12-14T05:39:47.898Z,89.62
2017-12-14T05:40:47.869Z,89.06
2017-12-14T05:41:47.863Z,89.34
2017-12-14T05:42:47.855Z,88.10
2017-12-14T05:43:47.841Z,87.45
2017-12-14T05:44:47.834Z,86.02
2017-12-14T05:45:47.820Z,85.55
2017-12-14T05:46:47.804Z,85.07
2017-12-14T05:47:47.805Z,84.50
2017-12-14T05:48:47.789Z,84.12
2017-12-14T05:49:47.780Z,84.69
2017-12-14T05:50:47.773Z,84.03
2017-12-14T05:51:47.763Z,83.17
2017-12-14T05:52:47.753Z,82.60
2017-12-14T05:53:47.739Z,82.32
2017-12-14T05:54:47.736Z,81.51
2017-12-14T05:55:48.691Z,80.65
2017-12-14T05:56:47.712Z,81.04
2017-12-14T05:57:47.697Z,81.04
2017-12-14T05:58:47.688Z,81.13
2017-12-14T05:59:47.676Z,80.08
2017-12-14T06:00:47.671Z,80.37
2017-12-14T06:01:47.653Z,83.78
2017-12-14T06:02:47.640Z,85.30
2017-12-14T06:03:47.638Z,86.54
2017-12-14T06:04:47.629Z,88.39
2017-12-14T06:05:47.615Z,87.91
2017-12-14T06:06:47.608Z,84.59
2017-12-14T06:07:47.599Z,81.65
2017-12-14T06:08:47.593Z,81.36
2017-12-14T06:09:47.579Z,79.08
2017-12-14T06:10:47.564Z,79.17
2017-12-14T06:11:47.552Z,78.23
2017-12-14T06:12:47.551Z,77.37
2017-12-14T06:13:47.538Z,78.23
2017-12-14T06:14:47.524Z,78.32
2017-12-14T06:15:47.518Z,77.56
2017-12-14T06:16:47.505Z,77.75
2017-12-14T06:17:47.497Z,77.94
2017-12-14T06:18:47.488Z,77.18
2017-12-14T06:19:47.478Z,76.80
2017-12-14T06:20:47.470Z,77.47
2017-12-14T06:21:47.457Z,77.84
2017-12-14T06:22:47.441Z,77.37
2017-12-14T06:23:47.440Z,77.84
2017-12-14T06:24:47.431Z,77.37
2017-12-14T06:25:48.201Z,77.84
2017-12-14T06:26:47.409Z,77.56
2017-12-14T06:27:48.206Z,82.12
2017-12-14T06:28:47.397Z,85.82
2017-12-14T06:29:47.379Z,78.55
2017-12-14T06:30:47.367Z,75.42
2017-12-14T06:31:47.359Z,74.33
2017-12-14T06:32:47.365Z,73.67
2017-12-14T06:33:47.337Z,74.15
2017-12-14T06:34:47.327Z,74.43
2017-12-14T06:35:47.320Z,74.71
2017-12-14T06:36:47.309Z,74.62
2017-12-14T06:37:47.301Z,74.81
2017-12-14T06:38:47.291Z,74.71
2017-12-14T06:39:47.286Z,74.43
2017-12-14T06:40:47.280Z,88.43
2017-12-14T06:41:47.288Z,82.45
2017-12-14T06:42:47.258Z,77.31
2017-12-14T06:43:47.247Z,74.56
2017-12-14T06:44:47.247Z,73.33
2017-12-14T06:45:47.226Z,73.00
2017-12-14T06:46:47.204Z,73.19
2017-12-14T06:47:47.205Z,73.86
2017-12-14T06:48:47.194Z,73.57
2017-12-14T06:49:47.185Z,74.24
2017-12-14T06:50:49.714Z,74.87
2017-12-14T06:51:47.171Z,74.49
2017-12-14T06:52:47.156Z,75.05
2017-12-14T06:53:47.141Z,75.15
2017-12-14T06:54:47.138Z,75.81
2017-12-14T06:55:47.157Z,76.10
2017-12-14T06:56:47.128Z,76.10
2017-12-14T06:57:47.112Z,76.10
2017-12-14T06:58:47.102Z,76.01
2017-12-14T06:59:47.093Z,76.39
2017-12-14T07:00:47.086Z,75.91
2017-12-14T07:01:47.071Z,76.39
2017-12-14T07:02:47.059Z,76.29
2017-12-14T07:03:48.276Z,76.39
2017-12-14T07:04:47.046Z,76.57
2017-12-14T07:05:47.029Z,76.39
2017-12-14T07:06:47.022Z,76.86
2017-12-14T07:07:47.028Z,77.43
2017-12-14T07:08:47.007Z,77.24
2017-12-14T07:09:46.990Z,77.24
2017-12-14T07:10:46.974Z,77.14
2017-12-14T07:11:46.967Z,77.33
2017-12-14T07:12:46.951Z,77.14
2017-12-14T07:13:46.943Z,77.24
2017-12-14T07:14:46.932Z,77.33
2017-12-14T07:15:46.924Z,77.39
2017-12-14T07:16:46.906Z,77.71
2017-12-14T07:17:46.904Z,77.52
2017-12-14T07:18:46.896Z,78.05
2017-12-14T07:19:47.739Z,77.67
2017-12-14T07:20:47.723Z,77.58
2017-12-14T07:21:46.863Z,77.58
2017-12-14T07:22:46.854Z,78.05
2017-12-14T07:23:46.850Z,77.86
2017-12-14T07:24:46.834Z,77.77
2017-12-14T07:25:46.822Z,77.67
2017-12-14T07:26:46.815Z,78.53
2017-12-14T07:27:46.805Z,78.34
2017-12-14T07:28:46.785Z,77.96
2017-12-14T07:29:46.803Z,77.77
2017-12-14T07:30:46.774Z,78.53
2017-12-14T07:31:47.726Z,78.24
2017-12-14T07:32:46.747Z,78.53
2017-12-14T07:33:46.740Z,78.24
2017-12-14T07:34:46.728Z,78.43
2017-12-14T07:35:46.718Z,78.34
2017-12-14T07:36:46.710Z,77.96
2017-12-14T07:37:47.227Z,78.05
2017-12-14T07:38:46.688Z,78.24
2017-12-14T07:39:46.677Z,78.62
2017-12-14T07:40:46.668Z,78.53
2017-12-14T07:41:46.655Z,78.72
2017-12-14T07:42:46.651Z,78.34
2017-12-14T07:43:46.628Z,79.85
2017-12-14T07:44:46.625Z,79.28
2017-12-14T07:45:46.604Z,78.81
2017-12-14T07:46:46.600Z,78.72
2017-12-14T07:47:46.588Z,78.62
2017-12-14T07:48:47.228Z,78.72
2017-12-14T07:49:46.567Z,78.53
2017-12-14T07:50:46.558Z,78.81
2017-12-14T07:51:46.553Z,78.72
2017-12-14T07:52:46.537Z,78.72
2017-12-14T07:53:46.530Z,78.72
2017-12-14T07:54:46.532Z,78.53
2017-12-14T07:55:46.504Z,79.28
2017-12-14T07:56:46.497Z,79.38
2017-12-14T07:57:46.486Z,79.00
2017-12-14T07:58:46.472Z,78.85
2017-12-14T07:59:46.464Z,79.33
2017-12-14T08:00:46.458Z,80.08
2017-12-14T08:01:46.441Z,80.94
2017-12-14T08:02:46.439Z,81.75
2017-12-14T08:03:46.414Z,82.27
2017-12-14T08:04:46.414Z,82.36
2017-12-14T08:05:46.399Z,82.36
2017-12-14T08:06:46.393Z,82.74
2017-12-14T08:07:46.383Z,82.36
2017-12-14T08:08:46.376Z,82.27
2017-12-14T08:09:46.359Z,82.65
2017-12-14T08:10:46.352Z,82.65
2017-12-14T08:11:46.335Z,83.22
2017-12-14T08:12:46.324Z,83.03
2017-12-14T08:13:46.316Z,83.03
2017-12-14T08:14:46.310Z,83.12
2017-12-14T08:15:46.306Z,83.03
2017-12-14T08:16:46.291Z,83.22
2017-12-14T08:17:46.285Z,83.22
2017-12-14T08:18:46.260Z,83.03
2017-12-14T08:19:46.264Z,82.74
2017-12-14T08:20:46.251Z,82.93
2017-12-14T08:21:46.240Z,83.03
2017-12-14T08:22:46.230Z,83.22
2017-12-14T08:23:46.219Z,82.93
2017-12-14T08:24:46.219Z,83.12
2017-12-14T08:25:46.200Z,83.22
2017-12-14T08:26:46.183Z,83.12
2017-12-14T08:27:46.754Z,83.12
2017-12-14T08:28:46.168Z,83.12
2017-12-14T08:29:46.154Z,83.03
2017-12-14T08:30:46.151Z,83.12
2017-12-14T08:31:46.139Z,83.50
2017-12-14T08:32:46.138Z,83.40
2017-12-14T08:33:46.121Z,83.40
2017-12-14T08:34:46.113Z,83.40
2017-12-14T08:35:46.103Z,83.31
2017-12-14T08:36:46.094Z,83.97
2017-12-14T08:37:46.082Z,84.07
2017-12-14T08:38:46.068Z,84.07
2017-12-14T08:39:46.064Z,83.22
2017-12-14T08:40:46.050Z,83.22
2017-12-14T08:41:46.037Z,82.93
2017-12-14T08:42:46.030Z,82.93
2017-12-14T08:43:46.025Z,83.12
2017-12-14T08:44:46.015Z,82.55
2017-12-14T08:45:46.000Z,82.55
2017-12-14T08:46:46.007Z,81.41
2017-12-14T08:47:45.985Z,81.79
2017-12-14T08:48:45.979Z,81.55
2017-12-14T08:49:45.983Z,82.03
2017-12-14T08:50:45.961Z,81.70
2017-12-14T08:51:45.947Z,82.17
2017-12-14T08:52:45.937Z,82.12
2017-12-14T08:53:45.920Z,82.12
2017-12-14T08:54:45.913Z,82.31
2017-12-14T08:55:45.909Z,82.59
2017-12-14T08:56:45.897Z,82.59
2017-12-14T08:57:45.887Z,82.88
2017-12-14T08:58:45.874Z,82.40
2017-12-14T08:59:45.870Z,83.16
2017-12-14T09:00:45.859Z,83.45
2017-12-14T09:01:45.852Z,82.97
2017-12-14T09:02:45.842Z,83.36
2017-12-14T09:03:45.838Z,83.16
2017-12-14T09:04:45.823Z,83.45
2017-12-14T09:05:45.812Z,83.73
2017-12-14T09:06:46.755Z,83.54
2017-12-14T09:07:46.757Z,83.54
2017-12-14T09:08:45.789Z,84.01
2017-12-14T09:09:45.775Z,84.21
2017-12-14T09:10:45.767Z,84.01
2017-12-14T09:11:45.754Z,83.73
2017-12-14T09:12:46.254Z,83.78
2017-12-14T09:13:45.737Z,84.07
2017-12-14T09:14:45.781Z,83.50
2017-12-14T09:15:46.257Z,83.50
2017-12-14T09:16:54.359Z,83.31
2017-12-14T09:19:29.629Z,83.88
2017-12-14T09:20:29.065Z,83.73
2017-12-14T09:23:13.446Z,82.97
2017-12-14T09:24:13.405Z,82.97
2017-12-14T09:26:56.783Z,82.40
2017-12-14T09:27:56.752Z,82.31
2017-12-14T09:30:40.675Z,81.93
2017-12-14T09:31:40.098Z,81.93
2017-12-14T09:34:24.464Z,81.65
2017-12-14T09:35:24.441Z,81.45
2017-12-14T09:38:09.362Z,81.97
2017-12-14T09:39:08.781Z,81.40
2017-12-14T09:41:53.166Z,80.74
2017-12-14T09:42:53.122Z,80.83
2017-12-14T09:45:36.510Z,81.12
2017-12-14T09:46:36.478Z,80.74
2017-12-14T09:49:20.866Z,80.16
2017-12-14T09:50:20.838Z,80.45
2017-12-14T09:53:05.204Z,79.22
2017-12-14T09:54:05.172Z,79.31
2017-12-14T09:55:05.160Z,79.69
2017-12-14T09:56:05.150Z,80.07
2017-12-14T09:57:05.143Z,79.97
2017-12-14T09:58:05.136Z,79.79
2017-12-14T09:59:05.125Z,79.97
2017-12-14T10:00:06.750Z,80.26
2017-12-14T10:01:05.111Z,80.45
2017-12-14T10:02:05.144Z,81.49
2017-12-14T10:03:05.095Z,81.49
2017-12-14T10:04:05.083Z,81.30
2017-12-14T10:05:05.077Z,80.93
2017-12-14T10:06:05.070Z,80.93
2017-12-14T10:07:05.054Z,80.74
2017-12-14T10:08:05.051Z,80.83
2017-12-14T10:09:05.048Z,80.64
2017-12-14T10:10:05.032Z,80.64
2017-12-14T10:11:05.026Z,80.74
2017-12-14T10:12:05.012Z,80.26
2017-12-14T10:13:06.758Z,80.45
2017-12-14T10:14:05.001Z,80.35
2017-12-14T10:15:04.993Z,80.07
2017-12-14T10:16:04.987Z,80.93
2017-12-14T10:17:06.756Z,80.26
2017-12-14T10:18:04.963Z,80.16
2017-12-14T10:19:06.757Z,79.88
2017-12-14T10:20:04.945Z,80.26
2017-12-14T10:21:06.757Z,80.45
2017-12-14T10:22:04.930Z,80.26
2017-12-14T10:23:04.919Z,80.55
2017-12-14T10:24:04.911Z,80.74
2017-12-14T10:25:04.909Z,81.49
2017-12-14T10:26:04.902Z,81.30
2017-12-14T10:27:04.890Z,81.78
2017-12-14T10:28:04.881Z,81.30
2017-12-14T10:29:04.879Z,81.21
2017-12-14T10:30:04.866Z,81.02
2017-12-14T10:31:04.857Z,81.21
2017-12-14T10:32:04.849Z,81.49
2017-12-14T10:33:04.837Z,81.97
2017-12-14T10:34:04.830Z,81.49
2017-12-14T10:35:06.757Z,81.49
2017-12-14T10:36:06.764Z,81.40
2017-12-14T10:37:04.802Z,81.49
2017-12-14T10:38:06.764Z,81.59
2017-12-14T10:39:06.766Z,81.30
2017-12-14T10:39:19.103Z,81.68
2017-12-14T10:41:04.771Z,82.16
2017-12-14T10:42:06.271Z,82.45
2017-12-14T10:43:04.755Z,82.73
2017-12-14T10:44:04.754Z,82.82
2017-12-14T10:45:04.737Z,83.20
2017-12-14T10:46:06.267Z,83.30
2017-12-14T10:47:06.268Z,83.59
2017-12-14T10:48:04.735Z,84.01
2017-12-14T10:49:04.703Z,84.01
2017-12-14T10:50:04.692Z,84.59
2017-12-14T10:51:04.687Z,84.25
2017-12-14T10:52:06.267Z,84.11
2017-12-14T10:53:06.268Z,84.68
2017-12-14T10:54:04.659Z,84.59
2017-12-14T10:57:26.541Z,85.44
2017-12-14T10:58:17.648Z,85.25
2017-12-14T11:01:13.591Z,86.30
2017-12-14T11:02:04.097Z,86.11
2017-12-14T11:04:56.091Z,86.68
2017-12-14T11:05:48.413Z,86.68
2017-12-14T11:08:32.791Z,86.20
2017-12-14T11:09:32.758Z,86.30
2017-12-14T11:10:32.766Z,86.77
2017-12-14T11:11:32.740Z,86.49
2017-12-14T11:12:32.730Z,87.34
2017-12-14T11:13:41.369Z,87.15
2017-12-14T11:16:17.106Z,87.15
2017-12-14T11:17:17.073Z,86.49
2017-12-14T11:20:00.453Z,85.58
2017-12-14T11:21:00.417Z,85.49
2017-12-14T11:23:44.794Z,86.15
2017-12-14T11:24:44.758Z,86.34
2017-12-14T11:27:28.143Z,85.11
2017-12-14T11:28:28.106Z,84.91
2017-12-14T11:31:12.506Z,83.97
2017-12-14T11:32:12.460Z,84.06
2017-12-14T11:34:55.842Z,84.06
2017-12-14T11:35:55.818Z,84.06
2017-12-14T11:38:40.187Z,84.06
2017-12-14T11:39:40.158Z,83.59
2017-12-14T11:40:40.152Z,84.06
2017-12-14T11:41:40.149Z,83.59
2017-12-14T11:42:40.137Z,83.20
2017-12-14T11:43:40.123Z,83.30
2017-12-14T11:44:40.118Z,82.45
2017-12-14T11:45:40.110Z,83.20
2017-12-14T11:46:40.106Z,83.01
2017-12-14T11:47:40.087Z,82.16
2017-12-14T11:48:40.078Z,81.12
2017-12-14T11:49:40.073Z,81.12
2017-12-14T11:50:40.066Z,80.93
2017-12-14T11:51:40.057Z,81.30
2017-12-14T11:52:40.046Z,81.12
2017-12-14T11:53:40.042Z,81.21
2017-12-14T11:54:40.052Z,81.35
2017-12-14T11:55:40.027Z,80.55
2017-12-14T11:56:40.017Z,80.21
2017-12-14T11:57:40.008Z,80.40
2017-12-14T11:58:39.999Z,80.58
2017-12-14T11:59:39.993Z,80.02
2017-12-14T12:00:39.989Z,79.73
2017-12-14T12:01:39.980Z,79.25
2017-12-14T12:02:39.973Z,79.54
2017-12-14T12:03:39.960Z,79.73
2017-12-14T12:04:39.949Z,79.06
2017-12-14T12:05:39.940Z,79.25
2017-12-14T12:06:39.935Z,79.06
2017-12-14T12:07:39.936Z,79.44
2017-12-14T12:08:39.918Z,79.88
2017-12-14T12:09:39.905Z,79.31
2017-12-14T12:10:39.896Z,79.69
2017-12-14T12:11:39.896Z,80.07
2017-12-14T12:12:39.887Z,79.69
2017-12-14T12:13:39.880Z,78.83
2017-12-14T12:14:39.877Z,78.93
2017-12-14T12:15:39.861Z,79.41
2017-12-14T12:16:39.854Z,79.31
2017-12-14T12:17:39.846Z,79.31
2017-12-14T12:18:39.840Z,80.45
2017-12-14T12:19:39.826Z,79.31
2017-12-14T12:20:39.817Z,79.41
2017-12-14T12:21:40.752Z,78.93
2017-12-14T12:22:39.802Z,79.41
2017-12-14T12:23:39.793Z,79.69
2017-12-14T12:24:39.841Z,79.69
2017-12-14T12:25:39.777Z,79.22
2017-12-14T12:26:39.769Z,79.60
2017-12-14T12:27:40.754Z,79.50
2017-12-14T12:28:39.757Z,80.26
2017-12-14T12:29:39.750Z,80.16
2017-12-14T12:30:39.739Z,80.16
2017-12-14T12:31:39.733Z,80.35
2017-12-14T12:32:39.723Z,79.97
2017-12-14T12:33:39.713Z,80.35
2017-12-14T12:34:39.717Z,80.35
2017-12-14T12:35:39.694Z,80.16
2017-12-14T12:36:39.691Z,80.55
2017-12-14T12:37:39.676Z,80.16
2017-12-14T12:38:39.665Z,80.35
2017-12-14T12:39:39.665Z,80.35
2017-12-14T12:40:40.267Z,80.26
2017-12-14T12:41:39.660Z,80.35
2017-12-14T12:42:39.638Z,81.12
2017-12-14T12:43:39.625Z,81.12
2017-12-14T12:44:39.616Z,80.55
2017-12-14T12:45:39.610Z,81.30
2017-12-14T12:46:39.603Z,81.30
2017-12-14T12:47:42.269Z,81.49
2017-12-14T12:48:39.587Z,81.30
2017-12-14T12:49:39.574Z,81.59
2017-12-14T12:50:39.572Z,82.16
2017-12-14T12:51:39.556Z,81.78
2017-12-14T12:52:39.548Z,81.78
2017-12-14T12:53:39.546Z,81.21
2017-12-14T12:54:39.542Z,81.21
2017-12-14T12:55:39.526Z,81.59
2017-12-14T12:56:39.515Z,81.59
2017-12-14T12:57:39.512Z,81.59
2017-12-14T12:58:39.512Z,81.49
2017-12-14T12:59:39.488Z,81.49
2017-12-14T13:00:39.483Z,82.07
2017-12-14T13:01:39.468Z,82.07
2017-12-14T13:02:39.465Z,81.78
2017-12-14T13:03:39.457Z,81.30
2017-12-14T13:04:39.450Z,82.16
2017-12-14T13:05:39.450Z,81.87
2017-12-14T13:06:39.430Z,81.87
2017-12-14T13:07:39.432Z,81.68
2017-12-14T13:08:39.414Z,82.07
2017-12-14T13:09:39.404Z,82.45
2017-12-14T13:10:39.420Z,81.97
2017-12-14T13:11:39.390Z,82.35
2017-12-14T13:12:39.381Z,82.26
2017-12-14T13:13:39.369Z,82.82
2017-12-14T13:14:39.363Z,82.82
2017-12-14T13:15:39.352Z,82.92
2017-12-14T13:16:39.351Z,82.64
2017-12-14T13:17:39.344Z,82.64
2017-12-14T13:18:39.326Z,82.54
2017-12-14T13:19:39.321Z,82.40
2017-12-14T13:20:39.316Z,82.78
2017-12-14T13:21:39.307Z,82.59
2017-12-14T13:22:39.294Z,82.59
2017-12-14T13:23:39.289Z,82.78
2017-12-14T13:24:39.280Z,82.78
2017-12-14T13:25:39.273Z,82.64
2017-12-14T13:26:39.262Z,82.78
2017-12-14T13:27:39.249Z,82.59
2017-12-14T13:28:39.243Z,82.40
2017-12-14T13:29:39.234Z,82.78
2017-12-14T13:30:39.227Z,82.16
2017-12-14T13:31:39.214Z,81.97
2017-12-14T13:32:39.204Z,81.87
2017-12-14T13:33:39.204Z,81.78
2017-12-14T13:34:39.191Z,81.21
2017-12-14T13:35:39.180Z,81.02
2017-12-14T13:36:39.169Z,81.02
2017-12-14T13:37:39.162Z,80.64
2017-12-14T13:38:39.158Z,80.16
2017-12-14T13:39:39.157Z,79.88
2017-12-14T13:40:39.149Z,79.79
2017-12-14T13:41:39.138Z,79.88
2017-12-14T13:42:39.122Z,80.35
2017-12-14T13:43:39.105Z,80.35